6B6 weather

Minute Man Air Field
Stow, Massachusetts, United States

Public forecast

Using degrees Fahrenheit for public forecast. Weather courtesy of forecast.io.

Closest aviation weather report (METAR) to Minute Man Air Field

Closest report is Laurence G Hanscom Field, 10.2 nm (18.8 km) E. Retrieved 2019/11/18 07:51 UTC (41 minutes ago):

KBED 180751Z AUTO 36009KT 10SM BKN018 OVC029 02/M05 A3004 RMK AO2 SLP187 T00171050

Closest aviation forecast (TAF) to Minute Man Air Field

Closest forecast is Laurence G Hanscom Field, 10.2 nm (18.8 km) E. Retrieved 2019/11/18 06:36 UTC (2 hours ago):

TAF KBED 180533Z 1806/1906 01008KT P6SM OVC025 FM181000 01009KT P6SM OVC015 FM181400 36010G20KT P6SM VCSH OVC010 FM181600 36010G20KT P6SM -RA OVC008 FM190000 35009KT 2SM BR VCSH OVC008